Decoded Metar for LHPA (PAPA in HUNGARY) (IATA:N/A) | Meteo·Mobile Aviation Weather
aviador You're here:

LHPA Decoded Metar

PAPA in HUNGARY
Report Time2019-10-20 15:45:00
UTC Time2019-10-20 16:12:17
Flight Rules vfr VFR
Wind190° at 14 Gusting to 23 kt
Visibility9999 m
Phenomena:N/A
Clouds:N/A
Expected CloudBase > 4,400 ft AGL from Temp-Dew spread
CeilingNone
Temp22°C (ISA +8)
Dew Point11°C (50% RH)
AAT17.3°C
QNH1014 hPa
Density Alt1,558 ft
Elevation486 ft
Report Wrong Elevation
Raw Report
METAR LHPA 201545Z 19014G23KT CAVOK 22/11 Q1014 NOSIG RMK BLU=

Extra information for LHPA:More info

Metar Taf Metar & Taf Last 4 Metars F.Rules Stats Wind Profile Meteogram Temp Stats Airport Information Weather charts Add Link Nearby VenuesMetar ALERT Operation Metar Decoded Social comments